sensor_id;sensor_type;location;lat;lon;timestamp;temperature;humidity
11540;DHT22;5826;54.756;9.192;2022-09-12T00:00:20;13.80;99.90
11540;DHT22;5826;54.756;9.192;2022-09-12T00:02:50;13.70;99.90
11540;DHT22;5826;54.756;9.192;2022-09-12T00:05:16;13.70;99.90
11540;DHT22;5826;54.756;9.192;2022-09-12T00:07:41;13.70;99.90
11540;DHT22;5826;54.756;9.192;2022-09-12T00:10:07;13.70;99.90
11540;DHT22;5826;54.756;9.192;2022-09-12T00:12:33;13.60;99.90
11540;DHT22;5826;54.756;9.192;2022-09-12T00:14:58;13.60;99.90
11540;DHT22;5826;54.756;9.192;2022-09-12T00:17:24;13.60;99.90
11540;DHT22;5826;54.756;9.192;2022-09-12T00:19:50;13.60;99.90
11540;DHT22;5826;54.756;9.192;2022-09-12T00:22:15;13.60;99.90
11540;DHT22;5826;54.756;9.192;2022-09-12T00:24:41;13.60;99.90
11540;DHT22;5826;54.756;9.192;2022-09-12T00:27:06;13.60;99.90
11540;DHT22;5826;54.756;9.192;2022-09-12T00:29:32;13.50;99.90
11540;DHT22;5826;54.756;9.192;2022-09-12T00:31:57;13.50;99.90
11540;DHT22;5826;54.756;9.192;2022-09-12T00:34:23;13.50;99.90
11540;DHT22;5826;54.756;9.192;2022-09-12T00:36:48;13.50;99.90
11540;DHT22;5826;54.756;9.192;2022-09-12T00:39:15;13.40;99.90
11540;DHT22;5826;54.756;9.192;2022-09-12T00:41:41;13.50;99.90
11540;DHT22;5826;54.756;9.192;2022-09-12T00:47:34;13.40;99.90
11540;DHT22;5826;54.756;9.192;2022-09-12T00:49:44;13.40;99.90
11540;DHT22;5826;54.756;9.192;2022-09-12T00:54:48;13.30;99.90
11540;DHT22;5826;54.756;9.192;2022-09-12T00:57:16;13.30;99.90
11540;DHT22;5826;54.756;9.192;2022-09-12T00:59:49;13.30;99.90
11540;DHT22;5826;54.756;9.192;2022-09-12T01:02:15;13.30;99.90
11540;DHT22;5826;54.756;9.192;2022-09-12T01:04:42;13.30;99.90
11540;DHT22;5826;54.756;9.192;2022-09-12T01:07:09;13.30;99.90
11540;DHT22;5826;54.756;9.192;2022-09-12T01:09:35;13.30;99.90
11540;DHT22;5826;54.756;9.192;2022-09-12T01:12:02;13.30;99.90
11540;DHT22;5826;54.756;9.192;2022-09-12T01:14:29;13.20;99.90
11540;DHT22;5826;54.756;9.192;2022-09-12T01:16:55;13.20;99.90
11540;DHT22;5826;54.756;9.192;2022-09-12T01:19:59;13.20;99.90
11540;DHT22;5826;54.756;9.192;2022-09-12T01:22:59;13.20;99.90
11540;DHT22;5826;54.756;9.192;2022-09-12T01:25:45;13.20;99.90
11540;DHT22;5826;54.756;9.192;2022-09-12T01:28:39;13.10;99.90
11540;DHT22;5826;54.756;9.192;2022-09-12T01:36:35;13.10;99.90
11540;DHT22;5826;54.756;9.192;2022-09-12T01:39:19;13.10;99.90
11540;DHT22;5826;54.756;9.192;2022-09-12T01:47:07;13.10;99.90
11540;DHT22;5826;54.756;9.192;2022-09-12T01:49:44;13.00;99.90
11540;DHT22;5826;54.756;9.192;2022-09-12T01:52:22;13.00;99.90
11540;DHT22;5826;54.756;9.192;2022-09-12T01:54:59;13.00;99.90
11540;DHT22;5826;54.756;9.192;2022-09-12T01:57:36;12.90;99.90
11540;DHT22;5826;54.756;9.192;2022-09-12T02:00:08;12.90;99.90
11540;DHT22;5826;54.756;9.192;2022-09-12T02:02:38;13.00;99.90
11540;DHT22;5826;54.756;9.192;2022-09-12T02:05:15;12.90;99.90
11540;DHT22;5826;54.756;9.192;2022-09-12T02:07:46;12.90;99.90
11540;DHT22;5826;54.756;9.192;2022-09-12T02:10:22;13.00;99.90
11540;DHT22;5826;54.756;9.192;2022-09-12T02:13:57;12.90;99.90
11540;DHT22;5826;54.756;9.192;2022-09-12T02:15:58;12.90;99.90
11540;DHT22;5826;54.756;9.192;2022-09-12T02:18:29;12.80;99.90
11540;DHT22;5826;54.756;9.192;2022-09-12T02:20:56;12.80;99.90
11540;DHT22;5826;54.756;9.192;2022-09-12T02:23:26;12.80;99.90
11540;DHT22;5826;54.756;9.192;2022-09-12T02:25:56;12.80;99.90
11540;DHT22;5826;54.756;9.192;2022-09-12T02:28:33;12.80;99.90
11540;DHT22;5826;54.756;9.192;2022-09-12T02:31:13;12.80;99.90
11540;DHT22;5826;54.756;9.192;2022-09-12T02:38:48;12.80;99.90
11540;DHT22;5826;54.756;9.192;2022-09-12T02:41:17;12.70;99.90
11540;DHT22;5826;54.756;9.192;2022-09-12T02:43:43;12.70;99.90
11540;DHT22;5826;54.756;9.192;2022-09-12T02:46:15;12.70;99.90
11540;DHT22;5826;54.756;9.192;2022-09-12T02:48:42;12.70;99.90
11540;DHT22;5826;54.756;9.192;2022-09-12T02:51:09;12.60;99.90
11540;DHT22;5826;54.756;9.192;2022-09-12T02:53:35;12.60;99.90
11540;DHT22;5826;54.756;9.192;2022-09-12T02:56:04;12.60;99.90
11540;DHT22;5826;54.756;9.192;2022-09-12T02:58:31;12.60;99.90
11540;DHT22;5826;54.756;9.192;2022-09-12T03:04:32;12.60;99.90
11540;DHT22;5826;54.756;9.192;2022-09-12T03:10:15;12.50;99.90
11540;DHT22;5826;54.756;9.192;2022-09-12T03:15:52;12.50;99.90
11540;DHT22;5826;54.756;9.192;2022-09-12T03:18:37;12.50;99.90
11540;DHT22;5826;54.756;9.192;2022-09-12T03:23:50;12.50;99.90
11540;DHT22;5826;54.756;9.192;2022-09-12T03:26:27;12.50;99.90
11540;DHT22;5826;54.756;9.192;2022-09-12T03:28:55;12.40;99.90
11540;DHT22;5826;54.756;9.192;2022-09-12T03:31:21;12.40;99.90
11540;DHT22;5826;54.756;9.192;2022-09-12T03:33:47;12.40;99.90
11540;DHT22;5826;54.756;9.192;2022-09-12T03:36:20;12.40;99.90
11540;DHT22;5826;54.756;9.192;2022-09-12T03:38:47;12.40;99.90
11540;DHT22;5826;54.756;9.192;2022-09-12T03:41:12;12.40;99.90
11540;DHT22;5826;54.756;9.192;2022-09-12T03:43:37;12.40;99.90
11540;DHT22;5826;54.756;9.192;2022-09-12T03:46:03;12.40;99.90
11540;DHT22;5826;54.756;9.192;2022-09-12T03:48:29;12.30;99.90
11540;DHT22;5826;54.756;9.192;2022-09-12T03:51:02;12.30;99.90
11540;DHT22;5826;54.756;9.192;2022-09-12T03:53:28;12.40;99.90
11540;DHT22;5826;54.756;9.192;2022-09-12T03:55:54;12.30;99.90
11540;DHT22;5826;54.756;9.192;2022-09-12T03:58:19;12.30;99.90
11540;DHT22;5826;54.756;9.192;2022-09-12T04:00:45;12.30;99.90
11540;DHT22;5826;54.756;9.192;2022-09-12T04:03:11;12.30;99.90
11540;DHT22;5826;54.756;9.192;2022-09-12T04:05:36;12.30;99.90
11540;DHT22;5826;54.756;9.192;2022-09-12T04:08:02;12.30;99.90
11540;DHT22;5826;54.756;9.192;2022-09-12T04:10:27;12.20;99.90
11540;DHT22;5826;54.756;9.192;2022-09-12T04:12:52;12.30;99.90
11540;DHT22;5826;54.756;9.192;2022-09-12T04:15:18;12.30;99.90
11540;DHT22;5826;54.756;9.192;2022-09-12T04:17:43;12.30;99.90
11540;DHT22;5826;54.756;9.192;2022-09-12T04:20:09;12.20;99.90
11540;DHT22;5826;54.756;9.192;2022-09-12T04:22:35;12.20;99.90
11540;DHT22;5826;54.756;9.192;2022-09-12T04:25:00;12.20;99.90
11540;DHT22;5826;54.756;9.192;2022-09-12T04:27:26;12.20;99.90
11540;DHT22;5826;54.756;9.192;2022-09-12T04:29:52;12.20;99.90
11540;DHT22;5826;54.756;9.192;2022-09-12T04:32:19;12.20;99.90
11540;DHT22;5826;54.756;9.192;2022-09-12T04:34:44;12.20;99.90
11540;DHT22;5826;54.756;9.192;2022-09-12T04:37:11;12.20;99.90
11540;DHT22;5826;54.756;9.192;2022-09-12T04:39:36;12.20;99.90
11540;DHT22;5826;54.756;9.192;2022-09-12T04:42:02;12.10;99.90
11540;DHT22;5826;54.756;9.192;2022-09-12T04:44:28;12.10;99.90
11540;DHT22;5826;54.756;9.192;2022-09-12T04:46:54;12.10;99.90
11540;DHT22;5826;54.756;9.192;2022-09-12T04:49:19;12.10;99.90
11540;DHT22;5826;54.756;9.192;2022-09-12T04:51:45;12.10;99.90
11540;DHT22;5826;54.756;9.192;2022-09-12T04:54:14;12.10;99.90
11540;DHT22;5826;54.756;9.192;2022-09-12T04:56:42;12.10;99.90
11540;DHT22;5826;54.756;9.192;2022-09-12T04:59:08;12.10;99.90
11540;DHT22;5826;54.756;9.192;2022-09-12T05:01:34;12.10;99.90
11540;DHT22;5826;54.756;9.192;2022-09-12T05:04:00;12.10;99.90
11540;DHT22;5826;54.756;9.192;2022-09-12T05:06:29;12.20;99.90
11540;DHT22;5826;54.756;9.192;2022-09-12T05:08:55;12.20;99.90
11540;DHT22;5826;54.756;9.192;2022-09-12T05:11:24;12.20;99.90
11540;DHT22;5826;54.756;9.192;2022-09-12T05:13:49;12.20;99.90
11540;DHT22;5826;54.756;9.192;2022-09-12T05:16:16;12.20;99.90
11540;DHT22;5826;54.756;9.192;2022-09-12T05:18:43;12.20;99.90
11540;DHT22;5826;54.756;9.192;2022-09-12T05:21:11;12.30;99.90
11540;DHT22;5826;54.756;9.192;2022-09-12T05:23:36;12.30;99.90
11540;DHT22;5826;54.756;9.192;2022-09-12T05:26:03;12.30;99.90
11540;DHT22;5826;54.756;9.192;2022-09-12T05:28:34;12.40;99.90
11540;DHT22;5826;54.756;9.192;2022-09-12T05:31:10;12.40;99.90
11540;DHT22;5826;54.756;9.192;2022-09-12T05:33:37;12.40;99.90
11540;DHT22;5826;54.756;9.192;2022-09-12T05:36:05;12.50;99.90
11540;DHT22;5826;54.756;9.192;2022-09-12T05:38:33;12.50;99.90
11540;DHT22;5826;54.756;9.192;2022-09-12T05:41:08;12.60;99.90
11540;DHT22;5826;54.756;9.192;2022-09-12T05:43:35;12.60;99.90
11540;DHT22;5826;54.756;9.192;2022-09-12T05:46:06;12.60;99.90
11540;DHT22;5826;54.756;9.192;2022-09-12T05:48:33;12.70;99.90
11540;DHT22;5826;54.756;9.192;2022-09-12T05:51:04;12.70;99.90
11540;DHT22;5826;54.756;9.192;2022-09-12T05:53:31;12.80;99.90
11540;DHT22;5826;54.756;9.192;2022-09-12T05:56:14;12.80;99.90
11540;DHT22;5826;54.756;9.192;2022-09-12T05:58:42;12.90;99.90
11540;DHT22;5826;54.756;9.192;2022-09-12T06:01:10;12.90;99.90
11540;DHT22;5826;54.756;9.192;2022-09-12T06:03:41;13.00;99.90
11540;DHT22;5826;54.756;9.192;2022-09-12T06:06:08;13.00;99.90
11540;DHT22;5826;54.756;9.192;2022-09-12T06:08:34;13.00;99.90
11540;DHT22;5826;54.756;9.192;2022-09-12T06:11:05;13.10;99.90
11540;DHT22;5826;54.756;9.192;2022-09-12T06:13:32;13.10;99.90
11540;DHT22;5826;54.756;9.192;2022-09-12T06:16:03;13.10;99.90
11540;DHT22;5826;54.756;9.192;2022-09-12T06:18:29;13.20;99.90
11540;DHT22;5826;54.756;9.192;2022-09-12T06:20:55;13.20;99.90
11540;DHT22;5826;54.756;9.192;2022-09-12T06:23:20;13.30;99.90
11540;DHT22;5826;54.756;9.192;2022-09-12T06:25:47;13.40;99.90
11540;DHT22;5826;54.756;9.192;2022-09-12T06:28:16;13.40;99.90
11540;DHT22;5826;54.756;9.192;2022-09-12T06:30:41;13.50;99.90
11540;DHT22;5826;54.756;9.192;2022-09-12T06:33:07;13.60;99.90
11540;DHT22;5826;54.756;9.192;2022-09-12T06:35:36;13.70;99.90
11540;DHT22;5826;54.756;9.192;2022-09-12T06:38:03;13.80;99.90
11540;DHT22;5826;54.756;9.192;2022-09-12T06:40:28;13.90;99.90
11540;DHT22;5826;54.756;9.192;2022-09-12T06:42:54;14.00;99.90
11540;DHT22;5826;54.756;9.192;2022-09-12T06:45:19;14.10;99.90
11540;DHT22;5826;54.756;9.192;2022-09-12T06:47:45;14.20;99.90
11540;DHT22;5826;54.756;9.192;2022-09-12T06:50:11;14.30;99.90
11540;DHT22;5826;54.756;9.192;2022-09-12T06:52:36;14.40;99.90
11540;DHT22;5826;54.756;9.192;2022-09-12T06:55:02;14.60;99.90
11540;DHT22;5826;54.756;9.192;2022-09-12T06:57:27;14.60;99.90
11540;DHT22;5826;54.756;9.192;2022-09-12T06:59:55;14.80;99.90
11540;DHT22;5826;54.756;9.192;2022-09-12T07:02:21;14.80;99.90
11540;DHT22;5826;54.756;9.192;2022-09-12T07:04:46;14.90;99.90
11540;DHT22;5826;54.756;9.192;2022-09-12T07:07:15;15.00;99.90
11540;DHT22;5826;54.756;9.192;2022-09-12T07:09:40;15.10;99.90
11540;DHT22;5826;54.756;9.192;2022-09-12T07:12:06;15.20;99.90
11540;DHT22;5826;54.756;9.192;2022-09-12T07:14:32;15.20;99.90
11540;DHT22;5826;54.756;9.192;2022-09-12T07:16:57;15.30;99.90
11540;DHT22;5826;54.756;9.192;2022-09-12T07:19:23;15.30;99.90
11540;DHT22;5826;54.756;9.192;2022-09-12T07:21:49;15.40;99.90
11540;DHT22;5826;54.756;9.192;2022-09-12T07:24:14;15.50;99.90
11540;DHT22;5826;54.756;9.192;2022-09-12T07:26:40;15.50;99.90
11540;DHT22;5826;54.756;9.192;2022-09-12T07:29:07;15.60;99.90
11540;DHT22;5826;54.756;9.192;2022-09-12T07:31:36;15.60;99.90
11540;DHT22;5826;54.756;9.192;2022-09-12T07:34:04;15.70;99.90
11540;DHT22;5826;54.756;9.192;2022-09-12T07:36:30;15.80;99.90
11540;DHT22;5826;54.756;9.192;2022-09-12T07:38:56;15.80;99.90
11540;DHT22;5826;54.756;9.192;2022-09-12T07:41:29;15.90;99.90
11540;DHT22;5826;54.756;9.192;2022-09-12T07:44:00;15.90;99.90
11540;DHT22;5826;54.756;9.192;2022-09-12T07:46:27;16.00;99.90
11540;DHT22;5826;54.756;9.192;2022-09-12T07:48:55;16.10;99.90
11540;DHT22;5826;54.756;9.192;2022-09-12T07:51:22;16.10;99.90
11540;DHT22;5826;54.756;9.192;2022-09-12T07:53:48;16.20;99.90
11540;DHT22;5826;54.756;9.192;2022-09-12T07:56:14;16.30;99.90
11540;DHT22;5826;54.756;9.192;2022-09-12T07:58:41;16.40;99.90
11540;DHT22;5826;54.756;9.192;2022-09-12T08:03:42;16.50;99.90
11540;DHT22;5826;54.756;9.192;2022-09-12T08:06:13;16.60;99.90
11540;DHT22;5826;54.756;9.192;2022-09-12T08:08:40;17.00;99.90
11540;DHT22;5826;54.756;9.192;2022-09-12T08:11:11;16.70;99.90
11540;DHT22;5826;54.756;9.192;2022-09-12T08:13:38;16.80;99.90
11540;DHT22;5826;54.756;9.192;2022-09-12T08:16:07;16.80;99.90
11540;DHT22;5826;54.756;9.192;2022-09-12T08:18:34;16.90;99.90
11540;DHT22;5826;54.756;9.192;2022-09-12T08:21:08;16.90;99.90
11540;DHT22;5826;54.756;9.192;2022-09-12T08:23:34;17.00;99.90
11540;DHT22;5826;54.756;9.192;2022-09-12T08:26:02;17.00;99.90
11540;DHT22;5826;54.756;9.192;2022-09-12T08:28:29;17.10;99.90
11540;DHT22;5826;54.756;9.192;2022-09-12T08:31:06;17.20;99.90
11540;DHT22;5826;54.756;9.192;2022-09-12T08:33:33;17.30;99.90
11540;DHT22;5826;54.756;9.192;2022-09-12T08:36:07;17.30;99.90
11540;DHT22;5826;54.756;9.192;2022-09-12T08:38:37;17.40;99.90
11540;DHT22;5826;54.756;9.192;2022-09-12T08:47:05;17.60;99.90
11540;DHT22;5826;54.756;9.192;2022-09-12T08:49:44;17.70;99.90
11540;DHT22;5826;54.756;9.192;2022-09-12T08:55:38;17.90;99.90
11540;DHT22;5826;54.756;9.192;2022-09-12T08:58:15;18.00;99.90
11540;DHT22;5826;54.756;9.192;2022-09-12T09:06:20;18.20;99.90
11540;DHT22;5826;54.756;9.192;2022-09-12T09:09:00;18.20;99.90
11540;DHT22;5826;54.756;9.192;2022-09-12T09:17:34;18.40;99.90
11540;DHT22;5826;54.756;9.192;2022-09-12T09:20:35;18.50;99.90
11540;DHT22;5826;54.756;9.192;2022-09-12T09:25:45;18.60;99.90
11540;DHT22;5826;54.756;9.192;2022-09-12T09:28:20;18.70;99.90
11540;DHT22;5826;54.756;9.192;2022-09-12T09:30:47;18.70;99.90
11540;DHT22;5826;54.756;9.192;2022-09-12T09:33:22;18.70;99.90
11540;DHT22;5826;54.756;9.192;2022-09-12T09:35:55;18.70;99.90
11540;DHT22;5826;54.756;9.192;2022-09-12T09:44:00;18.80;99.90
11540;DHT22;5826;54.756;9.192;2022-09-12T09:46:27;18.80;99.90
11540;DHT22;5826;54.756;9.192;2022-09-12T09:48:53;18.80;99.90
11540;DHT22;5826;54.756;9.192;2022-09-12T09:51:35;18.90;99.90
11540;DHT22;5826;54.756;9.192;2022-09-12T09:54:10;18.90;99.90
11540;DHT22;5826;54.756;9.192;2022-09-12T09:56:40;18.90;99.90
11540;DHT22;5826;54.756;9.192;2022-09-12T09:59:10;19.00;99.90
11540;DHT22;5826;54.756;9.192;2022-09-12T10:02:37;19.00;99.90
11540;DHT22;5826;54.756;9.192;2022-09-12T10:04:39;19.10;99.90
11540;DHT22;5826;54.756;9.192;2022-09-12T10:07:05;19.10;99.90
11540;DHT22;5826;54.756;9.192;2022-09-12T10:09:35;19.10;99.90
11540;DHT22;5826;54.756;9.192;2022-09-12T10:12:19;19.10;99.90
11540;DHT22;5826;54.756;9.192;2022-09-12T10:14:57;19.20;99.90
11540;DHT22;5826;54.756;9.192;2022-09-12T10:17:31;19.20;99.90
11540;DHT22;5826;54.756;9.192;2022-09-12T10:20:03;19.30;99.90
11540;DHT22;5826;54.756;9.192;2022-09-12T10:22:29;19.40;99.90
11540;DHT22;5826;54.756;9.192;2022-09-12T10:24:59;19.40;99.90
11540;DHT22;5826;54.756;9.192;2022-09-12T10:27:30;19.50;99.90
11540;DHT22;5826;54.756;9.192;2022-09-12T10:30:13;19.50;99.90
11540;DHT22;5826;54.756;9.192;2022-09-12T10:32:45;19.50;99.90
11540;DHT22;5826;54.756;9.192;2022-09-12T10:35:23;19.60;99.90
11540;DHT22;5826;54.756;9.192;2022-09-12T10:37:59;19.60;99.90
11540;DHT22;5826;54.756;9.192;2022-09-12T10:40:28;19.70;99.90
11540;DHT22;5826;54.756;9.192;2022-09-12T10:42:59;19.70;99.90
11540;DHT22;5826;54.756;9.192;2022-09-12T10:47:57;19.90;99.90
11540;DHT22;5826;54.756;9.192;2022-09-12T10:50:39;19.90;99.90
11540;DHT22;5826;54.756;9.192;2022-09-12T10:55:41;20.00;99.90
11540;DHT22;5826;54.756;9.192;2022-09-12T11:01:09;20.10;99.90
11540;DHT22;5826;54.756;9.192;2022-09-12T11:03:46;20.10;99.90
11540;DHT22;5826;54.756;9.192;2022-09-12T11:06:22;20.10;99.90
11540;DHT22;5826;54.756;9.192;2022-09-12T11:09:16;20.10;99.90
11540;DHT22;5826;54.756;9.192;2022-09-12T11:12:14;20.10;99.90
11540;DHT22;5826;54.756;9.192;2022-09-12T11:14:52;20.00;99.90
11540;DHT22;5826;54.756;9.192;2022-09-12T11:18:19;20.10;99.90
11540;DHT22;5826;54.756;9.192;2022-09-12T11:26:48;20.10;99.90
11540;DHT22;5826;54.756;9.192;2022-09-12T11:32:21;20.10;99.90
11540;DHT22;5826;54.756;9.192;2022-09-12T11:41:01;20.00;99.90
11540;DHT22;5826;54.756;9.192;2022-09-12T11:43:31;20.00;99.90
11540;DHT22;5826;54.756;9.192;2022-09-12T11:46:04;19.90;99.90
11540;DHT22;5826;54.756;9.192;2022-09-12T11:48:39;19.90;99.90
11540;DHT22;5826;54.756;9.192;2022-09-12T11:51:17;19.90;99.90
11540;DHT22;5826;54.756;9.192;2022-09-12T11:53:43;20.00;99.90
11540;DHT22;5826;54.756;9.192;2022-09-12T11:56:16;20.00;99.90
11540;DHT22;5826;54.756;9.192;2022-09-12T11:58:47;20.10;99.90
11540;DHT22;5826;54.756;9.192;2022-09-12T12:01:24;20.20;99.90
11540;DHT22;5826;54.756;9.192;2022-09-12T12:03:51;20.50;99.90
11540;DHT22;5826;54.756;9.192;2022-09-12T12:07:00;20.70;99.90
11540;DHT22;5826;54.756;9.192;2022-09-12T12:09:27;20.80;99.90
11540;DHT22;5826;54.756;9.192;2022-09-12T12:11:55;20.90;99.90
11540;DHT22;5826;54.756;9.192;2022-09-12T12:16:56;20.90;99.90
11540;DHT22;5826;54.756;9.192;2022-09-12T12:19:31;20.90;99.90
11540;DHT22;5826;54.756;9.192;2022-09-12T12:22:22;20.80;99.90
11540;DHT22;5826;54.756;9.192;2022-09-12T12:25:00;21.00;99.90
11540;DHT22;5826;54.756;9.192;2022-09-12T12:38:34;22.00;99.90
11540;DHT22;5826;54.756;9.192;2022-09-12T12:43:44;22.40;99.90
11540;DHT22;5826;54.756;9.192;2022-09-12T12:46:11;22.50;99.80
11540;DHT22;5826;54.756;9.192;2022-09-12T12:49:38;22.70;99.80
11540;DHT22;5826;54.756;9.192;2022-09-12T12:51:55;23.00;99.80
11540;DHT22;5826;54.756;9.192;2022-09-12T12:57:16;23.30;99.40
11540;DHT22;5826;54.756;9.192;2022-09-12T13:02:21;23.30;99.10
11540;DHT22;5826;54.756;9.192;2022-09-12T13:04:48;23.20;99.40
11540;DHT22;5826;54.756;9.192;2022-09-12T13:07:42;23.00;99.50
11540;DHT22;5826;54.756;9.192;2022-09-12T13:10:21;22.70;99.80
11540;DHT22;5826;54.756;9.192;2022-09-12T13:12:47;22.50;99.90
11540;DHT22;5826;54.756;9.192;2022-09-12T13:18:06;22.10;99.90
11540;DHT22;5826;54.756;9.192;2022-09-12T13:20:43;21.90;99.90
11540;DHT22;5826;54.756;9.192;2022-09-12T13:23:40;21.70;99.90
11540;DHT22;5826;54.756;9.192;2022-09-12T13:26:11;21.50;99.90
11540;DHT22;5826;54.756;9.192;2022-09-12T13:28:37;21.30;99.90
11540;DHT22;5826;54.756;9.192;2022-09-12T13:31:17;21.30;99.90
11540;DHT22;5826;54.756;9.192;2022-09-12T13:36:39;21.70;99.90
11540;DHT22;5826;54.756;9.192;2022-09-12T13:39:26;21.80;99.90
11540;DHT22;5826;54.756;9.192;2022-09-12T13:42:26;21.70;99.90
11540;DHT22;5826;54.756;9.192;2022-09-12T13:47:37;21.50;99.90
11540;DHT22;5826;54.756;9.192;2022-09-12T13:50:05;21.30;99.90
11540;DHT22;5826;54.756;9.192;2022-09-12T13:52:34;21.20;99.90
11540;DHT22;5826;54.756;9.192;2022-09-12T13:55:03;21.10;99.90
11540;DHT22;5826;54.756;9.192;2022-09-12T13:57:37;21.00;99.90
11540;DHT22;5826;54.756;9.192;2022-09-12T14:00:15;21.00;99.90
11540;DHT22;5826;54.756;9.192;2022-09-12T14:02:47;20.90;99.90
11540;DHT22;5826;54.756;9.192;2022-09-12T14:05:24;20.90;99.90
11540;DHT22;5826;54.756;9.192;2022-09-12T14:10:33;21.00;99.90
11540;DHT22;5826;54.756;9.192;2022-09-12T14:13:04;21.00;99.90
11540;DHT22;5826;54.756;9.192;2022-09-12T14:15:35;20.90;99.90
11540;DHT22;5826;54.756;9.192;2022-09-12T14:18:03;20.80;99.90
11540;DHT22;5826;54.756;9.192;2022-09-12T14:20:30;20.80;99.90
11540;DHT22;5826;54.756;9.192;2022-09-12T14:23:02;20.80;99.90
11540;DHT22;5826;54.756;9.192;2022-09-12T14:25:35;20.80;99.90
11540;DHT22;5826;54.756;9.192;2022-09-12T14:28:03;21.00;99.90
11540;DHT22;5826;54.756;9.192;2022-09-12T14:30:34;21.10;99.90
11540;DHT22;5826;54.756;9.192;2022-09-12T14:33:15;21.20;99.90
11540;DHT22;5826;54.756;9.192;2022-09-12T14:35:46;21.10;99.90
11540;DHT22;5826;54.756;9.192;2022-09-12T14:38:17;21.10;99.90
11540;DHT22;5826;54.756;9.192;2022-09-12T14:40:46;21.00;99.90
11540;DHT22;5826;54.756;9.192;2022-09-12T14:43:30;21.00;99.90
11540;DHT22;5826;54.756;9.192;2022-09-12T14:46:17;20.90;99.90
11540;DHT22;5826;54.756;9.192;2022-09-12T14:48:52;20.90;99.90
11540;DHT22;5826;54.756;9.192;2022-09-12T14:51:25;21.00;99.90
11540;DHT22;5826;54.756;9.192;2022-09-12T14:53:51;21.10;99.90
11540;DHT22;5826;54.756;9.192;2022-09-12T14:56:20;21.60;99.90
11540;DHT22;5826;54.756;9.192;2022-09-12T14:58:45;22.30;99.90
11540;DHT22;5826;54.756;9.192;2022-09-12T15:06:30;22.10;99.90
11540;DHT22;5826;54.756;9.192;2022-09-12T15:09:04;21.80;99.90
11540;DHT22;5826;54.756;9.192;2022-09-12T15:11:30;21.60;99.90
11540;DHT22;5826;54.756;9.192;2022-09-12T15:13:57;21.40;99.90
11540;DHT22;5826;54.756;9.192;2022-09-12T15:16:23;21.30;99.90
11540;DHT22;5826;54.756;9.192;2022-09-12T15:18:49;21.10;99.90
11540;DHT22;5826;54.756;9.192;2022-09-12T15:21:18;21.00;99.90
11540;DHT22;5826;54.756;9.192;2022-09-12T15:23:49;20.80;99.90
11540;DHT22;5826;54.756;9.192;2022-09-12T15:26:18;20.70;99.90
11540;DHT22;5826;54.756;9.192;2022-09-12T15:28:43;20.50;99.90
11540;DHT22;5826;54.756;9.192;2022-09-12T15:31:17;20.40;99.90
11540;DHT22;5826;54.756;9.192;2022-09-12T15:33:45;20.40;99.90
11540;DHT22;5826;54.756;9.192;2022-09-12T15:36:13;20.30;99.90
11540;DHT22;5826;54.756;9.192;2022-09-12T15:38:40;20.20;99.90
11540;DHT22;5826;54.756;9.192;2022-09-12T15:41:12;20.20;99.90
11540;DHT22;5826;54.756;9.192;2022-09-12T15:43:38;20.20;99.90
11540;DHT22;5826;54.756;9.192;2022-09-12T15:46:04;20.20;99.90
11540;DHT22;5826;54.756;9.192;2022-09-12T15:48:31;20.20;99.90
11540;DHT22;5826;54.756;9.192;2022-09-12T15:50:57;20.20;99.90
11540;DHT22;5826;54.756;9.192;2022-09-12T15:53:26;20.20;99.90
11540;DHT22;5826;54.756;9.192;2022-09-12T15:55:52;20.20;99.90
11540;DHT22;5826;54.756;9.192;2022-09-12T15:58:18;20.20;99.90
11540;DHT22;5826;54.756;9.192;2022-09-12T16:00:43;20.20;99.90
11540;DHT22;5826;54.756;9.192;2022-09-12T16:03:24;20.20;99.90
11540;DHT22;5826;54.756;9.192;2022-09-12T16:05:55;20.10;99.90
11540;DHT22;5826;54.756;9.192;2022-09-12T16:08:21;20.10;99.90
11540;DHT22;5826;54.756;9.192;2022-09-12T16:10:50;20.00;99.90
11540;DHT22;5826;54.756;9.192;2022-09-12T16:13:17;20.00;99.90
11540;DHT22;5826;54.756;9.192;2022-09-12T16:15:42;19.90;99.90
11540;DHT22;5826;54.756;9.192;2022-09-12T16:18:08;19.90;99.90
11540;DHT22;5826;54.756;9.192;2022-09-12T16:20:34;19.90;99.90
11540;DHT22;5826;54.756;9.192;2022-09-12T16:22:59;19.80;99.90
11540;DHT22;5826;54.756;9.192;2022-09-12T16:25:25;19.80;99.90
11540;DHT22;5826;54.756;9.192;2022-09-12T16:27:50;19.80;99.90
11540;DHT22;5826;54.756;9.192;2022-09-12T16:30:15;19.70;99.90
11540;DHT22;5826;54.756;9.192;2022-09-12T16:32:41;19.70;99.90
11540;DHT22;5826;54.756;9.192;2022-09-12T16:35:07;19.70;99.90
11540;DHT22;5826;54.756;9.192;2022-09-12T16:37:33;19.60;99.90
11540;DHT22;5826;54.756;9.192;2022-09-12T16:39:59;19.60;99.90
11540;DHT22;5826;54.756;9.192;2022-09-12T16:42:25;19.60;99.90
11540;DHT22;5826;54.756;9.192;2022-09-12T16:44:50;19.60;99.90
11540;DHT22;5826;54.756;9.192;2022-09-12T16:47:16;19.60;99.90
11540;DHT22;5826;54.756;9.192;2022-09-12T16:49:41;19.60;99.90
11540;DHT22;5826;54.756;9.192;2022-09-12T16:52:07;19.50;99.90
11540;DHT22;5826;54.756;9.192;2022-09-12T16:54:33;19.50;99.90
11540;DHT22;5826;54.756;9.192;2022-09-12T16:56:58;19.50;99.90
11540;DHT22;5826;54.756;9.192;2022-09-12T16:59:24;19.50;99.90
11540;DHT22;5826;54.756;9.192;2022-09-12T17:01:50;19.50;99.90
11540;DHT22;5826;54.756;9.192;2022-09-12T17:04:16;19.50;99.90
11540;DHT22;5826;54.756;9.192;2022-09-12T17:06:41;19.50;99.90
11540;DHT22;5826;54.756;9.192;2022-09-12T17:09:07;19.40;99.90
11540;DHT22;5826;54.756;9.192;2022-09-12T17:11:36;19.40;99.90
11540;DHT22;5826;54.756;9.192;2022-09-12T17:14:05;19.40;99.90
11540;DHT22;5826;54.756;9.192;2022-09-12T17:16:36;19.30;99.90
11540;DHT22;5826;54.756;9.192;2022-09-12T17:19:03;19.30;99.90
11540;DHT22;5826;54.756;9.192;2022-09-12T17:21:28;19.30;99.90
11540;DHT22;5826;54.756;9.192;2022-09-12T17:23:54;19.20;99.90
11540;DHT22;5826;54.756;9.192;2022-09-12T17:26:20;19.20;99.90
11540;DHT22;5826;54.756;9.192;2022-09-12T17:28:46;19.10;99.90
11540;DHT22;5826;54.756;9.192;2022-09-12T17:31:12;19.10;99.90
11540;DHT22;5826;54.756;9.192;2022-09-12T17:33:39;19.10;99.90
11540;DHT22;5826;54.756;9.192;2022-09-12T17:36:08;19.10;99.90
11540;DHT22;5826;54.756;9.192;2022-09-12T17:38:36;19.00;99.90
11540;DHT22;5826;54.756;9.192;2022-09-12T17:41:20;19.00;99.90
11540;DHT22;5826;54.756;9.192;2022-09-12T17:43:51;19.00;99.90
11540;DHT22;5826;54.756;9.192;2022-09-12T17:46:19;18.90;99.90
11540;DHT22;5826;54.756;9.192;2022-09-12T17:48:50;18.90;99.90
11540;DHT22;5826;54.756;9.192;2022-09-12T17:51:15;18.90;99.90
11540;DHT22;5826;54.756;9.192;2022-09-12T17:53:41;18.90;99.90
11540;DHT22;5826;54.756;9.192;2022-09-12T17:56:08;18.80;99.90
11540;DHT22;5826;54.756;9.192;2022-09-12T17:58:34;18.80;99.90
11540;DHT22;5826;54.756;9.192;2022-09-12T18:01:11;18.80;99.90
11540;DHT22;5826;54.756;9.192;2022-09-12T18:03:57;18.80;99.90
11540;DHT22;5826;54.756;9.192;2022-09-12T18:06:25;18.70;99.90
11540;DHT22;5826;54.756;9.192;2022-09-12T18:08:50;18.70;99.90
11540;DHT22;5826;54.756;9.192;2022-09-12T18:11:16;18.70;99.90